createdAt,value
2023-03-29T00:01:06.675Z,53.20
2023-03-29T00:03:36.580Z,53.20
2023-03-29T00:06:05.770Z,53.20
2023-03-29T00:08:35.101Z,53.20
2023-03-29T00:11:03.814Z,53.30
2023-03-29T00:13:32.481Z,53.30
2023-03-29T00:16:00.821Z,53.30
2023-03-29T00:18:29.255Z,53.70
2023-03-29T00:21:00.608Z,53.40
2023-03-29T00:23:29.370Z,53.80
2023-03-29T00:25:58.404Z,53.30
2023-03-29T00:28:27.247Z,53.70
2023-03-29T00:30:55.870Z,53.60
2023-03-29T00:33:24.351Z,53.60
2023-03-29T00:35:54.455Z,53.40
2023-03-29T00:38:24.173Z,53.30
2023-03-29T00:40:52.673Z,53.40
2023-03-29T00:43:21.099Z,53.20
2023-03-29T00:45:49.538Z,53.10
2023-03-29T00:48:21.691Z,53.30
2023-03-29T00:50:54.305Z,53.40
2023-03-29T00:53:31.623Z,53.50
2023-03-29T00:56:04.499Z,53.40
2023-03-29T00:58:39.405Z,53.40
2023-03-29T01:01:11.674Z,53.50
2023-03-29T01:03:46.756Z,53.50
2023-03-29T01:06:19.303Z,53.60
2023-03-29T01:08:54.580Z,53.90
2023-03-29T01:11:27.588Z,54.10
2023-03-29T01:14:02.626Z,53.90
2023-03-29T01:16:33.098Z,53.70
2023-03-29T01:19:02.387Z,54.00
2023-03-29T01:21:36.472Z,53.70
2023-03-29T01:24:47.106Z,53.70
2023-03-29T01:27:22.901Z,53.80
2023-03-29T01:29:57.994Z,53.70
2023-03-29T01:32:35.321Z,53.80
2023-03-29T01:35:10.375Z,53.80
2023-03-29T01:37:42.726Z,53.80
2023-03-29T01:40:12.410Z,53.80
2023-03-29T01:42:49.748Z,53.80
2023-03-29T01:45:26.325Z,53.80
2023-03-29T01:48:02.343Z,53.90
2023-03-29T01:50:39.742Z,53.90
2023-03-29T01:53:12.787Z,53.80
2023-03-29T01:55:48.553Z,53.80
2023-03-29T01:58:20.232Z,53.80
2023-03-29T02:00:54.017Z,53.90
2023-03-29T02:03:26.942Z,53.80
2023-03-29T02:05:58.482Z,53.80
2023-03-29T02:08:31.033Z,53.90
2023-03-29T02:10:59.812Z,53.90
2023-03-29T02:13:28.479Z,53.90
2023-03-29T02:16:00.160Z,53.90
2023-03-29T02:18:28.984Z,54.40
2023-03-29T02:20:59.177Z,54.10
2023-03-29T02:23:34.351Z,53.90
2023-03-29T02:26:06.735Z,53.90
2023-03-29T02:28:35.606Z,54.00
2023-03-29T02:31:14.773Z,53.90
2023-03-29T02:33:52.106Z,53.90
2023-03-29T02:36:25.305Z,54.20
2023-03-29T02:38:54.709Z,54.10
2023-03-29T02:41:24.544Z,53.90
2023-03-29T02:43:53.843Z,54.10
2023-03-29T02:46:24.760Z,54.20
2023-03-29T02:48:56.200Z,54.00
2023-03-29T02:51:30.327Z,54.00
2023-03-29T02:54:03.432Z,54.00
2023-03-29T02:56:32.058Z,54.00
2023-03-29T02:59:00.531Z,53.90
2023-03-29T03:01:30.449Z,53.90
2023-03-29T03:03:58.882Z,54.50
2023-03-29T03:06:29.181Z,53.90
2023-03-29T03:08:57.716Z,54.00
2023-03-29T03:11:26.081Z,54.20
2023-03-29T03:13:54.468Z,53.90
2023-03-29T03:16:22.894Z,53.90
2023-03-29T03:18:54.969Z,53.90
2023-03-29T03:21:24.599Z,53.90
2023-03-29T03:23:54.412Z,53.90
2023-03-29T03:26:24.921Z,53.90
2023-03-29T03:28:53.408Z,54.00
2023-03-29T03:31:43.051Z,54.00
2023-03-29T03:34:26.349Z,54.00
2023-03-29T03:37:01.727Z,54.20
2023-03-29T03:39:32.662Z,54.00
2023-03-29T03:42:02.406Z,54.00
2023-03-29T03:44:30.763Z,54.20
2023-03-29T03:47:19.477Z,54.00
2023-03-29T03:49:49.606Z,54.00
2023-03-29T03:52:19.863Z,54.10
2023-03-29T03:54:50.272Z,54.00
2023-03-29T03:57:40.340Z,54.10
2023-03-29T04:00:20.397Z,54.00
2023-03-29T04:02:59.541Z,54.00
2023-03-29T04:05:29.573Z,54.00
2023-03-29T04:07:57.927Z,54.30
2023-03-29T04:10:54.018Z,54.00
2023-03-29T04:13:27.510Z,54.10
2023-03-29T04:16:34.287Z,54.10
2023-03-29T04:19:17.856Z,54.00
2023-03-29T04:22:11.700Z,54.10
2023-03-29T04:24:40.044Z,54.20
2023-03-29T04:27:26.987Z,54.10
2023-03-29T04:29:56.329Z,54.20
2023-03-29T04:32:33.966Z,54.30
2023-03-29T04:35:08.102Z,54.50
2023-03-29T04:37:40.293Z,54.40
2023-03-29T04:40:15.690Z,54.70
2023-03-29T04:49:36.883Z,54.00
2023-03-29T04:52:11.903Z,54.30
2023-03-29T04:54:42.222Z,54.20
2023-03-29T04:57:34.574Z,55.00
2023-03-29T05:04:30.028Z,54.60
2023-03-29T05:07:44.768Z,54.60
2023-03-29T05:10:45.733Z,55.00
2023-03-29T05:13:18.316Z,54.70
2023-03-29T05:15:48.168Z,54.10
2023-03-29T05:18:17.036Z,54.60
2023-03-29T05:20:47.410Z,54.70
2023-03-29T05:23:20.243Z,54.70
2023-03-29T05:26:16.808Z,54.70
2023-03-29T05:32:18.444Z,55.10
2023-03-29T05:34:53.890Z,54.30
2023-03-29T05:37:27.894Z,54.50
2023-03-29T05:40:05.762Z,54.40
2023-03-29T05:42:37.862Z,55.00
2023-03-29T05:45:11.721Z,54.80
2023-03-29T05:47:41.673Z,54.80
2023-03-29T05:50:11.506Z,54.80
2023-03-29T05:52:41.107Z,54.80
2023-03-29T05:55:11.106Z,54.80
2023-03-29T05:57:41.511Z,54.80
2023-03-29T06:00:23.646Z,54.80
2023-03-29T06:03:03.649Z,54.80
2023-03-29T06:05:42.233Z,54.70
2023-03-29T06:08:11.572Z,54.70
2023-03-29T06:11:05.836Z,54.70
2023-03-29T06:14:08.456Z,54.80
2023-03-29T06:16:43.324Z,54.70
2023-03-29T06:19:12.809Z,54.70
2023-03-29T06:21:42.308Z,54.70
2023-03-29T06:24:14.536Z,54.70
2023-03-29T06:26:48.103Z,54.70
2023-03-29T06:29:18.036Z,54.70
2023-03-29T06:31:48.361Z,55.10
2023-03-29T06:34:38.583Z,54.80
2023-03-29T06:37:30.193Z,55.10
2023-03-29T06:40:10.711Z,54.90
2023-03-29T06:42:45.129Z,55.00
2023-03-29T06:45:36.730Z,55.00
2023-03-29T06:48:10.263Z,55.00
2023-03-29T06:50:38.775Z,55.00
2023-03-29T06:53:17.034Z,55.10
2023-03-29T06:55:52.902Z,55.10
2023-03-29T06:58:37.112Z,55.20
2023-03-29T07:01:14.953Z,55.20
2023-03-29T07:04:04.782Z,55.20
2023-03-29T07:06:39.124Z,55.30
2023-03-29T07:09:07.951Z,55.30
2023-03-29T07:11:58.212Z,55.30
2023-03-29T07:14:30.909Z,55.40
2023-03-29T07:17:01.460Z,55.30
2023-03-29T07:19:34.155Z,55.40
2023-03-29T07:22:16.429Z,55.40
2023-03-29T07:24:50.776Z,55.30
2023-03-29T07:27:20.880Z,55.30
2023-03-29T07:29:51.519Z,55.50
2023-03-29T07:32:22.484Z,55.50
2023-03-29T07:35:24.932Z,55.50
2023-03-29T07:37:55.026Z,55.50
2023-03-29T07:40:24.725Z,55.50
2023-03-29T07:42:59.186Z,55.60
2023-03-29T07:45:32.022Z,55.60
2023-03-29T07:48:06.658Z,55.60
2023-03-29T07:50:53.562Z,55.60
2023-03-29T07:53:29.798Z,55.50
2023-03-29T07:56:01.689Z,55.50
2023-03-29T07:58:47.579Z,55.60
2023-03-29T08:01:19.929Z,55.70
2023-03-29T08:04:14.545Z,55.70
2023-03-29T08:07:01.976Z,55.70
2023-03-29T08:09:48.661Z,55.60
2023-03-29T08:12:17.368Z,55.60
2023-03-29T08:14:46.288Z,55.60
2023-03-29T08:17:24.128Z,55.80
2023-03-29T08:19:53.861Z,55.60
2023-03-29T08:22:24.795Z,55.80
2023-03-29T08:25:28.578Z,55.80
2023-03-29T08:27:57.287Z,55.80
2023-03-29T08:30:36.404Z,55.80
2023-03-29T08:33:05.827Z,55.90
2023-03-29T08:35:35.782Z,56.00
2023-03-29T08:38:21.771Z,55.90
2023-03-29T08:40:51.956Z,56.00
2023-03-29T08:43:53.831Z,56.10
2023-03-29T08:46:35.355Z,56.10
2023-03-29T08:49:19.966Z,55.90
2023-03-29T08:51:57.947Z,56.00
2023-03-29T08:54:29.928Z,55.90
2023-03-29T08:57:18.369Z,55.90
2023-03-29T08:59:54.810Z,55.70
2023-03-29T09:02:27.253Z,56.30
2023-03-29T09:05:14.985Z,55.70
2023-03-29T09:07:48.488Z,55.80
2023-03-29T09:10:19.327Z,55.70
2023-03-29T09:13:10.185Z,55.60
2023-03-29T09:15:51.712Z,55.70
2023-03-29T09:18:43.543Z,55.60
2023-03-29T09:21:22.426Z,55.50
2023-03-29T09:24:11.649Z,55.50
2023-03-29T09:26:50.309Z,55.50
2023-03-29T09:29:49.266Z,55.30
2023-03-29T09:32:24.884Z,55.30
2023-03-29T09:35:14.317Z,55.20
2023-03-29T09:37:43.855Z,55.30
2023-03-29T09:40:19.574Z,55.30
2023-03-29T09:43:15.815Z,55.60
2023-03-29T09:45:44.843Z,55.30
2023-03-29T09:48:16.030Z,55.30
2023-03-29T09:50:52.410Z,55.10
2023-03-29T09:53:23.079Z,55.10
2023-03-29T09:56:08.499Z,55.00
2023-03-29T09:58:47.748Z,55.00
2023-03-29T10:01:19.314Z,54.90
2023-03-29T10:03:53.412Z,54.90
2023-03-29T10:06:26.890Z,54.80
2023-03-29T10:08:59.664Z,54.80
2023-03-29T10:11:39.092Z,54.80
2023-03-29T10:14:13.559Z,54.60
2023-03-29T10:16:46.639Z,54.60
2023-03-29T10:19:21.835Z,54.60
2023-03-29T10:21:51.657Z,54.50
2023-03-29T10:24:22.239Z,54.50
2023-03-29T10:26:55.846Z,54.50
2023-03-29T10:29:27.733Z,54.60
2023-03-29T10:31:56.658Z,54.60
2023-03-29T10:34:28.287Z,54.60
2023-03-29T10:37:00.468Z,54.60
2023-03-29T10:39:33.606Z,54.70
2023-03-29T10:42:05.508Z,54.70
2023-03-29T10:44:37.527Z,54.60
2023-03-29T10:47:14.122Z,54.50
2023-03-29T10:49:47.047Z,54.40
2023-03-29T10:52:17.811Z,54.40
2023-03-29T10:54:47.300Z,54.50
2023-03-29T10:57:27.772Z,54.60
2023-03-29T11:00:04.822Z,54.50
2023-03-29T11:03:17.069Z,54.30
2023-03-29T11:05:53.879Z,53.90
2023-03-29T11:08:39.259Z,53.90
2023-03-29T11:11:24.330Z,53.70
2023-03-29T11:14:01.028Z,53.50
2023-03-29T11:16:39.295Z,53.20
2023-03-29T11:19:37.553Z,53.00
2023-03-29T11:22:15.219Z,53.30
2023-03-29T11:25:03.625Z,52.60
2023-03-29T11:27:41.140Z,52.60
2023-03-29T11:30:21.700Z,52.60
2023-03-29T11:33:06.342Z,52.60
2023-03-29T11:35:48.217Z,52.60
2023-03-29T11:38:25.933Z,52.40
2023-03-29T11:41:06.565Z,52.10
2023-03-29T11:43:38.660Z,51.40
2023-03-29T11:46:17.789Z,51.40
2023-03-29T11:48:54.072Z,51.20
2023-03-29T11:51:26.364Z,51.10
2023-03-29T11:54:02.929Z,51.20
2023-03-29T11:56:45.605Z,51.00
2023-03-29T11:59:19.950Z,51.10
2023-03-29T12:01:54.913Z,50.90
2023-03-29T12:04:28.412Z,50.90
2023-03-29T12:07:10.369Z,50.90
2023-03-29T12:09:42.975Z,50.80
2023-03-29T12:12:16.747Z,50.90
2023-03-29T12:15:01.293Z,50.70
2023-03-29T12:17:37.478Z,50.40
2023-03-29T12:20:15.010Z,50.50
2023-03-29T12:22:49.093Z,50.60
2023-03-29T12:25:23.354Z,51.20
2023-03-29T12:28:08.501Z,50.70
2023-03-29T12:30:51.903Z,50.70
2023-03-29T12:33:53.128Z,50.60
2023-03-29T12:37:02.089Z,50.50
2023-03-29T12:40:13.648Z,50.90
2023-03-29T12:43:04.895Z,50.40
2023-03-29T12:45:57.198Z,50.70
2023-03-29T12:48:31.821Z,50.90
2023-03-29T12:51:02.898Z,50.70
2023-03-29T12:53:35.991Z,50.50
2023-03-29T12:56:17.156Z,50.60
2023-03-29T12:58:57.342Z,50.30
2023-03-29T13:01:29.913Z,50.20
2023-03-29T13:04:17.556Z,50.10
2023-03-29T13:07:05.875Z,49.90
2023-03-29T13:09:47.730Z,50.10
2023-03-29T13:12:27.117Z,50.30
2023-03-29T13:14:57.803Z,50.20
2023-03-29T13:17:36.113Z,50.30
2023-03-29T13:20:33.080Z,50.20
2023-03-29T13:23:22.446Z,50.00
2023-03-29T13:26:17.660Z,50.00
2023-03-29T13:29:17.570Z,49.80
2023-03-29T13:31:56.494Z,49.60
2023-03-29T13:34:39.069Z,49.60
2023-03-29T13:37:25.400Z,49.70
2023-03-29T13:39:56.251Z,49.50
2023-03-29T13:42:40.895Z,49.60
2023-03-29T13:45:23.962Z,49.50
2023-03-29T13:48:05.358Z,49.70
2023-03-29T13:50:40.554Z,49.80
2023-03-29T13:53:21.841Z,49.80
2023-03-29T13:55:54.337Z,49.70
2023-03-29T13:58:34.218Z,49.80
2023-03-29T14:01:11.151Z,49.60
2023-03-29T14:03:44.788Z,49.80
2023-03-29T14:06:16.727Z,49.80
2023-03-29T14:08:47.019Z,49.80
2023-03-29T14:11:24.463Z,49.90
2023-03-29T14:13:57.789Z,49.90
2023-03-29T14:16:30.388Z,50.00
2023-03-29T14:19:01.206Z,50.00
2023-03-29T14:21:29.593Z,49.80
2023-03-29T14:24:02.893Z,49.80
2023-03-29T14:26:33.241Z,49.90
2023-03-29T14:29:04.937Z,50.00
2023-03-29T14:31:50.320Z,50.00
2023-03-29T14:34:22.929Z,50.10
2023-03-29T14:36:58.808Z,50.20
2023-03-29T14:39:30.188Z,50.00
2023-03-29T14:42:01.891Z,50.00
2023-03-29T14:44:34.564Z,49.80
2023-03-29T14:47:04.296Z,50.00
2023-03-29T14:49:33.830Z,50.00
2023-03-29T14:52:03.409Z,49.90
2023-03-29T14:54:41.830Z,49.80
2023-03-29T14:57:18.580Z,49.60
2023-03-29T14:59:55.845Z,49.60
2023-03-29T15:02:27.016Z,49.70
2023-03-29T15:04:59.335Z,49.80
2023-03-29T15:07:29.435Z,49.80
2023-03-29T15:10:02.346Z,50.00
2023-03-29T15:12:31.705Z,50.00
2023-03-29T15:15:02.709Z,50.00
2023-03-29T15:17:49.461Z,49.80
2023-03-29T15:20:23.444Z,49.90
2023-03-29T15:23:00.037Z,50.50
2023-03-29T15:25:35.073Z,50.10
2023-03-29T15:28:03.765Z,50.00
2023-03-29T15:30:39.582Z,50.00
2023-03-29T15:33:22.102Z,50.00
2023-03-29T15:35:53.977Z,49.60
2023-03-29T15:38:27.678Z,49.60
2023-03-29T15:41:03.598Z,49.60
2023-03-29T15:43:32.044Z,49.50
2023-03-29T15:46:00.433Z,49.40
2023-03-29T15:48:30.754Z,49.20
2023-03-29T15:51:01.988Z,49.20
2023-03-29T15:53:32.321Z,49.10
2023-03-29T15:56:07.546Z,49.20
2023-03-29T15:58:38.312Z,49.30
2023-03-29T16:01:16.204Z,49.20
2023-03-29T16:03:47.814Z,49.10
2023-03-29T16:06:17.824Z,49.10
2023-03-29T16:08:47.007Z,49.10
2023-03-29T16:11:17.005Z,49.10
2023-03-29T16:13:45.972Z,49.00
2023-03-29T16:16:15.156Z,49.00
2023-03-29T16:18:43.810Z,49.70
2023-03-29T16:21:16.436Z,49.10
2023-03-29T16:23:45.901Z,49.10
2023-03-29T16:26:17.721Z,49.00
2023-03-29T16:28:46.422Z,49.10
2023-03-29T16:31:15.759Z,49.10
2023-03-29T16:33:44.682Z,49.00
2023-03-29T16:36:13.347Z,49.10
2023-03-29T16:38:42.150Z,49.10
2023-03-29T16:41:16.860Z,49.10
2023-03-29T16:43:46.246Z,49.20
2023-03-29T16:46:14.603Z,49.30
2023-03-29T16:48:43.299Z,49.40
2023-03-29T16:51:12.462Z,49.40
2023-03-29T16:53:41.022Z,49.40
2023-03-29T16:56:10.751Z,49.40
2023-03-29T16:58:42.682Z,49.50
2023-03-29T17:01:14.125Z,49.50
2023-03-29T17:03:43.860Z,49.50
2023-03-29T17:06:13.595Z,49.50
2023-03-29T17:08:42.970Z,49.50
2023-03-29T17:11:11.926Z,49.50
2023-03-29T17:13:41.655Z,50.10
2023-03-29T17:16:10.604Z,49.40
2023-03-29T17:18:39.185Z,49.50
2023-03-29T17:21:08.822Z,49.50
2023-03-29T17:23:37.193Z,49.50
2023-03-29T17:26:07.036Z,49.50
2023-03-29T17:28:36.200Z,49.60
2023-03-29T17:31:08.217Z,49.60
2023-03-29T17:33:37.551Z,49.60
2023-03-29T17:36:07.950Z,49.60
2023-03-29T17:38:38.078Z,49.60
2023-03-29T17:41:07.968Z,49.50
2023-03-29T17:43:36.305Z,49.50
2023-03-29T17:46:06.587Z,49.60
2023-03-29T17:48:35.102Z,49.50
2023-03-29T17:51:03.499Z,49.60
2023-03-29T17:53:31.894Z,49.50
2023-03-29T17:56:00.493Z,49.60
2023-03-29T17:58:28.975Z,49.60
2023-03-29T18:00:57.442Z,49.60
2023-03-29T18:03:27.254Z,49.60
2023-03-29T18:05:56.593Z,49.60
2023-03-29T18:08:24.972Z,49.70
2023-03-29T18:10:53.317Z,49.80
2023-03-29T18:13:25.497Z,49.70
2023-03-29T18:15:56.792Z,49.80
2023-03-29T18:18:27.221Z,49.80
2023-03-29T18:20:55.732Z,49.80
2023-03-29T18:23:24.084Z,49.90
2023-03-29T18:26:18.287Z,49.90
2023-03-29T18:31:56.380Z,50.00
2023-03-29T18:34:26.481Z,50.00
2023-03-29T18:36:55.414Z,50.00
2023-03-29T18:39:24.232Z,49.90
2023-03-29T18:41:53.548Z,49.90
2023-03-29T18:44:22.960Z,49.90
2023-03-29T18:46:51.624Z,50.10
2023-03-29T18:49:21.512Z,50.60
2023-03-29T18:51:51.325Z,50.10
2023-03-29T18:54:20.873Z,50.40
2023-03-29T18:56:49.576Z,50.20
2023-03-29T18:59:18.447Z,50.70
2023-03-29T19:01:48.128Z,50.10
2023-03-29T19:04:23.493Z,50.50
2023-03-29T19:07:00.100Z,50.60
2023-03-29T19:09:30.093Z,50.20
2023-03-29T19:12:03.237Z,50.30
2023-03-29T19:14:36.757Z,50.40
2023-03-29T19:17:06.074Z,50.50
2023-03-29T19:19:35.123Z,51.10
2023-03-29T19:22:05.817Z,50.90
2023-03-29T19:24:37.238Z,50.50
2023-03-29T19:27:06.633Z,50.50
2023-03-29T19:29:36.624Z,50.60
2023-03-29T19:32:07.147Z,51.10
2023-03-29T19:34:36.720Z,50.70
2023-03-29T19:37:07.103Z,50.70
2023-03-29T19:39:36.019Z,51.20
2023-03-29T19:42:04.568Z,50.80
2023-03-29T19:44:33.815Z,51.00
2023-03-29T19:47:02.289Z,51.30
2023-03-29T19:49:30.663Z,51.10
2023-03-29T19:51:59.396Z,51.00
2023-03-29T19:54:30.687Z,51.20
2023-03-29T19:57:00.067Z,51.20
2023-03-29T19:59:28.925Z,51.50
2023-03-29T20:01:59.706Z,51.40
2023-03-29T20:04:28.984Z,51.70
2023-03-29T20:06:58.747Z,51.30
2023-03-29T20:09:27.172Z,51.70
2023-03-29T20:11:58.092Z,52.10
2023-03-29T20:14:27.564Z,51.30
2023-03-29T20:16:57.502Z,51.60
2023-03-29T20:19:27.533Z,51.90
2023-03-29T20:21:57.729Z,51.50
2023-03-29T20:24:27.619Z,51.40
2023-03-29T20:26:59.143Z,52.20
2023-03-29T20:29:28.904Z,51.50
2023-03-29T20:31:58.362Z,51.70
2023-03-29T20:34:27.641Z,50.90
2023-03-29T20:37:00.791Z,52.40
2023-03-29T20:39:32.684Z,51.50
2023-03-29T20:42:03.064Z,52.30
2023-03-29T20:44:34.827Z,51.60
2023-03-29T20:47:05.033Z,51.90
2023-03-29T20:49:38.059Z,51.70
2023-03-29T20:52:08.433Z,51.90
2023-03-29T20:54:39.340Z,52.00
2023-03-29T20:57:14.279Z,51.90
2023-03-29T20:59:44.147Z,51.90
2023-03-29T21:02:14.158Z,52.40
2023-03-29T21:04:44.017Z,52.50
2023-03-29T21:07:12.669Z,52.00
2023-03-29T21:09:42.340Z,52.50
2023-03-29T21:12:12.202Z,52.00
2023-03-29T21:14:40.759Z,52.10
2023-03-29T21:17:09.658Z,52.00
2023-03-29T21:19:40.712Z,52.00
2023-03-29T21:22:13.973Z,52.30
2023-03-29T21:24:42.710Z,51.90
2023-03-29T21:27:13.201Z,52.20
2023-03-29T21:29:41.862Z,52.10
2023-03-29T21:32:10.898Z,52.20
2023-03-29T21:34:40.167Z,52.70
2023-03-29T21:37:09.095Z,52.20
2023-03-29T21:39:38.003Z,52.20
2023-03-29T21:42:07.655Z,52.60
2023-03-29T21:44:38.382Z,52.50
2023-03-29T21:47:07.196Z,52.90
2023-03-29T21:49:35.677Z,52.30
2023-03-29T21:52:04.169Z,52.80
2023-03-29T21:54:32.686Z,52.80
2023-03-29T21:57:01.339Z,52.90
2023-03-29T21:59:30.196Z,52.50
2023-03-29T22:02:00.658Z,52.60
2023-03-29T22:04:37.172Z,52.70
2023-03-29T22:07:08.720Z,52.80
2023-03-29T22:09:37.954Z,52.80
2023-03-29T22:12:18.764Z,52.70
2023-03-29T22:14:48.535Z,53.00
2023-03-29T22:17:20.056Z,52.70
2023-03-29T22:19:49.855Z,52.80
2023-03-29T22:22:18.659Z,52.80
2023-03-29T22:24:47.134Z,52.90
2023-03-29T22:27:16.156Z,53.10
2023-03-29T22:29:45.095Z,53.10
2023-03-29T22:32:14.240Z,53.10
2023-03-29T22:34:45.531Z,53.40
2023-03-29T22:37:16.390Z,53.80
2023-03-29T22:39:45.996Z,54.00
2023-03-29T22:42:17.493Z,53.10
2023-03-29T22:44:48.404Z,53.30
2023-03-29T22:47:19.125Z,53.40
2023-03-29T22:49:50.109Z,53.40
2023-03-29T22:52:19.572Z,53.30
2023-03-29T22:54:52.075Z,53.50
2023-03-29T22:57:22.571Z,53.70
2023-03-29T22:59:56.448Z,53.60
2023-03-29T23:02:29.392Z,53.70
2023-03-29T23:05:01.553Z,54.10
2023-03-29T23:07:38.000Z,53.70
2023-03-29T23:10:31.405Z,53.70
2023-03-29T23:13:09.930Z,53.90
2023-03-29T23:15:46.720Z,53.60
2023-03-29T23:18:21.591Z,53.90
2023-03-29T23:24:19.050Z,54.10
2023-03-29T23:26:49.432Z,54.20
2023-03-29T23:29:18.470Z,54.00
2023-03-29T23:31:47.693Z,54.50
2023-03-29T23:34:16.518Z,54.10
2023-03-29T23:36:46.486Z,54.60
2023-03-29T23:39:18.805Z,54.30
2023-03-29T23:51:48.553Z,54.50
2023-03-29T23:54:18.778Z,54.90
2023-03-29T23:56:47.210Z,54.50
2023-03-29T23:59:15.578Z,54.50
